Time;durP1;ratioP1;P1;durP2;ratioP2;P2;SDS_P1;SDS_P2;PMS_P1;PMS_P2;Temp;Humidity;BMP_temperature;BMP_pressure;BME280_temperature;BME280_humidity;BME280_pressure;Samples;Min_cycle;Max_cycle;Signal;HPM_P1;HPM_P2
2022/09/03 00:02:25;;;;;;;7.88;1.75;;;17.20;90.20;;;;;;5044452;28;20128;-46
2022/09/03 00:05:22;;;;;;;3.40;1.23;;;17.20;90.20;;;;;;5027610;28;20068;-49
2022/09/03 00:08:02;;;;;;;2.20;1.55;;;17.10;90.30;;;;;;5045336;28;20045;-47
2022/09/03 00:10:52;;;;;;;2.97;1.23;;;17.10;90.20;;;;;;5044509;28;20155;-47
2022/09/03 00:13:42;;;;;;;5.47;1.48;;;17.00;90.30;;;;;;5045105;28;20066;-47
2022/09/03 00:16:12;;;;;;;5.00;1.50;;;16.90;90.40;;;;;;5045158;28;20147;-49
2022/09/03 00:18:47;;;;;;;2.70;1.55;;;16.90;90.40;;;;;;5027773;28;20048;-49
2022/09/03 00:21:18;;;;;;;4.72;1.65;;;16.90;90.50;;;;;;5044748;28;20052;-49
2022/09/03 00:23:46;;;;;;;3.80;1.40;;;16.80;90.50;;;;;;5045201;28;20492;-46
2022/09/03 00:26:12;;;;;;;4.60;1.65;;;16.80;90.50;;;;;;5045036;28;20139;-48
2022/09/03 00:28:44;;;;;;;4.25;1.50;;;16.80;90.50;;;;;;5045312;28;20127;-46
2022/09/03 00:31:17;;;;;;;7.38;1.45;;;16.70;90.50;;;;;;5026715;28;20464;-49
2022/09/03 00:33:46;;;;;;;2.97;1.70;;;16.70;90.60;;;;;;5043826;28;20551;-48
2022/09/03 00:36:21;;;;;;;5.18;1.45;;;16.70;90.60;;;;;;5029581;28;20095;-47
2022/09/03 00:38:47;;;;;;;2.85;1.27;;;16.70;90.70;;;;;;5045653;28;20605;-48
2022/09/03 00:41:29;;;;;;;5.85;1.70;;;16.60;90.70;;;;;;5045139;28;20057;-48
2022/09/03 00:44:21;;;;;;;4.15;1.50;;;16.60;90.70;;;;;;5042755;28;20056;-48
2022/09/03 00:47:12;;;;;;;4.22;1.33;;;16.50;90.80;;;;;;5035353;28;20713;-47
2022/09/03 00:50:11;;;;;;;2.33;1.45;;;16.50;90.80;;;;;;5032906;28;20057;-48
2022/09/03 00:52:51;;;;;;;5.80;1.40;;;16.40;90.80;;;;;;5035146;28;20056;-47
2022/09/03 00:55:58;;;;;;;2.40;1.48;;;16.40;90.90;;;;;;5045150;28;20049;-46
2022/09/03 00:58:34;;;;;;;4.95;1.25;;;16.30;91.00;;;;;;5045027;28;20355;-48
2022/09/03 01:01:13;;;;;;;3.20;1.40;;;16.30;91.10;;;;;;5045855;28;20045;-48
2022/09/03 01:04:05;;;;;;;2.88;1.52;;;16.30;91.20;;;;;;5045640;28;20041;-49
2022/09/03 01:06:38;;;;;;;3.70;1.30;;;16.20;91.10;;;;;;5028904;28;20049;-48
2022/09/03 01:09:22;;;;;;;;;;;16.30;91.10;;;;;;5045540;28;20055;-53
2022/09/03 01:12:06;;;;;;;6.97;1.65;;;16.20;91.10;;;;;;5044791;28;19928;-50
2022/09/03 01:14:54;;;;;;;2.10;1.20;;;16.20;91.20;;;;;;5044481;28;20570;-48
2022/09/03 01:17:38;;;;;;;3.92;1.27;;;16.20;91.10;;;;;;5036415;28;20527;-50
2022/09/03 01:20:38;;;;;;;2.15;1.23;;;16.20;91.10;;;;;;5042477;28;20496;-49
2022/09/03 01:23:19;;;;;;;3.95;1.25;;;16.20;91.20;;;;;;5028668;28;20067;-48
2022/09/03 01:26:04;;;;;;;3.92;1.40;;;16.20;91.10;;;;;;5042341;28;20059;-48
2022/09/03 01:28:59;;;;;;;9.45;2.72;;;16.20;91.30;;;;;;5042693;28;20055;-49
2022/09/03 01:31:45;;;;;;;4.90;1.50;;;16.20;91.20;;;;;;5044917;28;20041;-49
2022/09/03 01:34:32;;;;;;;3.47;1.10;;;16.20;91.20;;;;;;5025477;28;20049;-47
2022/09/03 01:37:32;;;;;;;5.32;1.25;;;16.20;91.30;;;;;;5043518;28;20511;-48
2022/09/03 01:40:12;;;;;;;2.97;1.20;;;16.20;91.20;;;;;;5044283;28;20056;-48
2022/09/03 01:42:59;;;;;;;4.10;1.23;;;16.20;91.30;;;;;;5044119;28;20527;-47
2022/09/03 01:45:35;;;;;;;5.00;1.23;;;16.20;91.20;;;;;;5024035;28;20056;-47
2022/09/03 01:48:42;;;;;;;2.17;1.17;;;16.10;91.20;;;;;;5041978;28;20049;-47
2022/09/03 01:51:18;;;;;;;3.67;1.20;;;16.20;91.20;;;;;;4962287;28;20062;-48
2022/09/03 01:53:53;;;;;;;4.68;1.20;;;16.20;91.20;;;;;;4961918;28;20615;-48
2022/09/03 01:56:56;;;;;;;4.10;1.85;;;16.10;91.20;;;;;;4961782;28;20078;-46
2022/09/03 01:59:40;;;;;;;4.13;1.50;;;16.20;91.30;;;;;;4962517;28;20057;-46
2022/09/03 02:02:26;;;;;;;3.35;1.23;;;16.10;91.20;;;;;;4962232;28;20054;-49
2022/09/03 02:05:13;;;;;;;4.75;1.30;;;16.10;91.20;;;;;;4960987;28;20058;-50
2022/09/03 02:07:43;;;;;;;4.63;1.52;;;16.10;91.20;;;;;;4955331;28;20537;-47
2022/09/03 02:10:18;;;;;;;6.18;1.30;;;16.10;91.20;;;;;;4946309;28;20050;-46
2022/09/03 02:12:58;;;;;;;3.25;1.02;;;16.10;91.30;;;;;;4962380;28;20129;-46
2022/09/03 02:15:25;;;;;;;1.98;1.15;;;16.10;91.20;;;;;;4952486;28;20097;-51
2022/09/03 02:17:55;;;;;;;8.07;1.85;;;16.10;91.20;;;;;;4945265;28;20521;-48
2022/09/03 02:20:25;;;;;;;4.82;1.40;;;16.10;91.20;;;;;;4962102;28;20074;-46
2022/09/03 02:22:53;;;;;;;2.08;1.10;;;16.10;91.20;;;;;;4962589;28;20070;-48
2022/09/03 02:25:20;;;;;;;4.05;1.02;;;16.20;91.20;;;;;;4964384;28;20130;-49
2022/09/03 02:27:48;;;;;;;2.78;0.90;;;16.20;91.20;;;;;;5014613;28;20052;-49
2022/09/03 02:30:14;;;;;;;5.53;1.23;;;16.20;91.20;;;;;;5044171;28;20115;-54
2022/09/03 02:32:40;;;;;;;5.68;1.40;;;16.20;91.20;;;;;;5043767;28;20045;-46
2022/09/03 02:35:09;;;;;;;4.72;1.10;;;16.20;91.20;;;;;;5041808;28;20053;-47
2022/09/03 02:37:35;;;;;;;5.18;1.45;;;16.20;91.10;;;;;;5042581;28;20060;-50
2022/09/03 02:40:05;;;;;;;3.35;0.85;;;16.20;91.10;;;;;;5043118;28;20304;-50
2022/09/03 02:42:32;;;;;;;2.22;1.38;;;16.20;91.10;;;;;;5021440;28;20056;-48
2022/09/03 02:45:12;;;;;;;4.25;1.20;;;16.20;91.10;;;;;;5043367;28;20051;-47
2022/09/03 02:47:40;;;;;;;4.00;1.20;;;16.20;91.40;;;;;;5043034;28;20044;-48
2022/09/03 02:50:06;;;;;;;2.92;1.15;;;16.20;91.10;;;;;;5024098;28;20411;-47
2022/09/03 02:52:32;;;;;;;3.22;0.95;;;16.20;91.10;;;;;;5042730;28;20049;-48
2022/09/03 02:54:57;;;;;;;1.92;1.17;;;16.20;91.10;;;;;;5042802;28;20048;-49
2022/09/03 02:57:23;;;;;;;3.33;1.30;;;16.20;91.10;;;;;;5026202;28;20380;-47
2022/09/03 02:59:49;;;;;;;4.15;1.15;;;16.10;91.10;;;;;;5046216;28;20052;-46
2022/09/03 03:02:14;;;;;;;3.70;1.40;;;16.10;91.20;;;;;;5045691;28;20057;-51
2022/09/03 03:04:40;;;;;;;3.60;1.40;;;16.10;91.20;;;;;;5046793;28;20123;-47
2022/09/03 03:07:06;;;;;;;3.88;1.00;;;16.10;91.20;;;;;;5045859;28;20087;-47
2022/09/03 03:09:32;;;;;;;2.08;0.98;;;16.10;91.20;;;;;;5046698;28;20106;-48
2022/09/03 03:11:58;;;;;;;5.68;1.40;;;16.10;91.20;;;;;;5046896;28;20480;-46
2022/09/03 03:14:24;;;;;;;4.78;1.38;;;16.10;91.20;;;;;;5047183;28;20045;-47
2022/09/03 03:16:50;;;;;;;2.35;1.20;;;16.10;91.30;;;;;;5028278;28;20045;-47
2022/09/03 03:19:16;;;;;;;4.43;1.20;;;16.10;91.20;;;;;;5045942;28;20729;-46
2022/09/03 03:21:42;;;;;;;3.05;1.20;;;16.10;91.30;;;;;;5044676;28;20052;-47
2022/09/03 03:24:08;;;;;;;5.07;1.02;;;16.00;91.40;;;;;;5045586;28;20492;-47
2022/09/03 03:26:34;;;;;;;6.03;2.47;;;16.00;91.40;;;;;;5046715;28;20045;-46
2022/09/03 03:29:03;;;;;;;4.05;1.00;;;16.00;91.40;;;;;;5046119;28;20049;-46
2022/09/03 03:31:29;;;;;;;4.07;1.63;;;16.00;91.50;;;;;;5046299;28;20084;-49
2022/09/03 03:33:58;;;;;;;3.22;1.05;;;16.00;91.50;;;;;;5046330;28;20072;-46
2022/09/03 03:36:26;;;;;;;2.80;1.10;;;16.00;91.50;;;;;;5046961;28;20049;-47
2022/09/03 03:38:58;;;;;;;5.05;1.23;;;16.00;91.60;;;;;;5045883;28;20049;-46
2022/09/03 03:41:26;;;;;;;4.63;1.40;;;15.90;91.60;;;;;;5045818;28;20049;-46
2022/09/03 03:43:56;;;;;;;4.32;1.38;;;15.90;91.60;;;;;;5048574;28;20491;-47
2022/09/03 03:46:23;;;;;;;4.55;1.00;;;15.90;91.60;;;;;;5047194;28;20049;-48
2022/09/03 03:48:51;;;;;;;3.00;1.42;;;15.90;91.70;;;;;;5047271;28;20079;-48
2022/09/03 03:51:16;;;;;;;1.70;1.00;;;15.90;92.00;;;;;;5047121;28;20122;-48
2022/09/03 03:53:42;;;;;;;6.57;1.33;;;15.80;91.70;;;;;;5046475;28;20045;-47
2022/09/03 03:56:11;;;;;;;3.00;1.15;;;15.90;91.70;;;;;;5046447;28;20125;-46
2022/09/03 03:58:37;;;;;;;3.63;1.10;;;15.80;91.70;;;;;;5045058;28;20048;-49
2022/09/03 04:01:08;;;;;;;1.17;1.00;;;15.80;91.80;;;;;;5043303;28;20079;-48
2022/09/03 04:03:34;;;;;;;3.83;0.90;;;15.80;91.80;;;;;;5045343;28;20080;-46
2022/09/03 04:06:01;;;;;;;1.77;1.20;;;15.80;91.90;;;;;;5045536;28;20053;-46
2022/09/03 04:08:27;;;;;;;1.42;1.10;;;15.80;91.80;;;;;;5045608;28;20053;-46
2022/09/03 04:10:53;;;;;;;1.88;0.90;;;15.80;91.80;;;;;;5045143;28;20063;-51
2022/09/03 04:13:19;;;;;;;1.75;1.08;;;15.80;91.80;;;;;;5045273;28;20409;-46
2022/09/03 04:15:45;;;;;;;2.85;1.10;;;15.80;91.90;;;;;;5045639;28;20045;-49
2022/09/03 04:18:11;;;;;;;3.88;1.10;;;15.80;91.90;;;;;;5026709;28;20068;-48
2022/09/03 04:20:37;;;;;;;1.73;1.00;;;15.80;91.90;;;;;;4993551;28;20439;-47
2022/09/03 04:23:03;;;;;;;6.05;1.30;;;15.70;92.00;;;;;;5043868;28;20065;-47
2022/09/03 04:25:29;;;;;;;3.00;1.17;;;15.70;92.00;;;;;;5045153;28;20084;-46
2022/09/03 04:27:55;;;;;;;5.00;1.00;;;15.70;92.00;;;;;;5045330;28;20127;-47
2022/09/03 04:30:26;;;;;;;5.30;1.33;;;15.70;92.10;;;;;;5026949;28;20064;-48
2022/09/03 04:32:52;;;;;;;4.55;1.00;;;15.60;92.10;;;;;;5043379;28;20418;-46
2022/09/03 04:35:19;;;;;;;4.88;1.15;;;15.60;92.10;;;;;;5044713;28;20472;-47
2022/09/03 04:37:46;;;;;;;5.63;1.33;;;15.60;92.20;;;;;;5044296;28;20455;-47
2022/09/03 04:40:12;;;;;;;5.28;1.27;;;15.50;92.20;;;;;;5026531;28;20067;-46
2022/09/03 04:42:38;;;;;;;2.53;1.10;;;15.50;92.20;;;;;;5044669;28;20080;-45
2022/09/03 04:45:04;;;;;;;3.22;1.20;;;15.50;92.20;;;;;;5044929;28;20048;-49
2022/09/03 04:47:30;;;;;;;2.08;1.00;;;15.40;92.30;;;;;;5045267;28;20052;-47
2022/09/03 04:49:55;;;;;;;4.85;1.25;;;15.40;92.30;;;;;;5045293;28;20048;-47
2022/09/03 04:52:21;;;;;;;3.58;1.63;;;15.40;92.40;;;;;;5025908;28;20415;-48
2022/09/03 04:54:47;;;;;;;1.45;0.93;;;15.40;92.40;;;;;;5044458;28;20136;-47
2022/09/03 04:57:13;;;;;;;4.28;1.30;;;15.40;92.40;;;;;;5043796;28;20048;-48
2022/09/03 04:59:39;;;;;;;3.90;1.30;;;15.30;92.50;;;;;;5043789;28;20056;-49
2022/09/03 05:02:07;;;;;;;2.83;1.27;;;15.30;92.40;;;;;;5028618;28;20534;-49
2022/09/03 05:04:32;;;;;;;3.35;1.05;;;15.30;92.50;;;;;;5046658;28;20088;-51
2022/09/03 05:07:01;;;;;;;2.97;1.10;;;15.30;92.50;;;;;;5027421;28;20080;-53
2022/09/03 05:09:27;;;;;;;2.90;1.25;;;15.30;92.60;;;;;;5045413;28;20049;-49
2022/09/03 05:11:53;;;;;;;2.25;1.10;;;15.20;92.60;;;;;;5044536;28;20063;-49
2022/09/03 05:14:19;;;;;;;2.63;1.38;;;15.20;92.70;;;;;;5044068;28;20049;-47
2022/09/03 05:16:44;;;;;;;2.28;1.30;;;15.20;92.80;;;;;;5043387;28;20053;-46
2022/09/03 05:19:12;;;;;;;2.03;1.30;;;15.20;92.80;;;;;;5044222;28;20052;-48
2022/09/03 05:21:38;;;;;;;2.60;1.20;;;15.20;92.80;;;;;;5044761;28;20071;-48
2022/09/03 05:24:04;;;;;;;3.92;1.42;;;15.20;92.80;;;;;;5044688;28;20049;-48
2022/09/03 05:26:36;;;;;;;3.70;1.27;;;15.20;92.80;;;;;;5043391;28;20500;-47
2022/09/03 05:29:07;;;;;;;2.30;1.40;;;15.20;92.90;;;;;;5043907;28;20514;-46
2022/09/03 05:31:38;;;;;;;3.55;1.20;;;15.20;92.80;;;;;;5044364;28;20049;-47
2022/09/03 05:34:05;;;;;;;2.45;1.13;;;15.20;92.90;;;;;;5043318;28;20383;-49
2022/09/03 05:36:36;;;;;;;2.33;1.05;;;15.20;93.10;;;;;;5024358;28;20090;-48
2022/09/03 05:39:03;;;;;;;3.33;1.08;;;15.30;92.90;;;;;;5043351;28;20048;-46
2022/09/03 05:41:30;;;;;;;4.05;1.40;;;15.40;92.80;;;;;;5044711;28;20045;-48
2022/09/03 05:43:57;;;;;;;3.35;1.13;;;15.40;92.90;;;;;;5043784;28;20080;-46
2022/09/03 05:46:32;;;;;;;1.60;1.02;;;15.40;92.90;;;;;;5042733;28;20051;-48
2022/09/03 05:49:00;;;;;;;3.03;1.02;;;15.60;92.90;;;;;;5043175;28;20497;-46
2022/09/03 05:51:27;;;;;;;5.50;1.63;;;15.80;92.60;;;;;;5043412;28;20044;-47
2022/09/03 05:53:54;;;;;;;2.83;1.25;;;16.10;92.50;;;;;;5042422;28;20399;-47
2022/09/03 05:56:22;;;;;;;3.95;1.05;;;16.50;92.10;;;;;;5042289;28;20575;-46
2022/09/03 05:58:51;;;;;;;4.40;1.30;;;16.70;91.90;;;;;;5042519;28;20052;-47
2022/09/03 06:01:19;;;;;;;2.85;1.20;;;17.10;91.60;;;;;;5043746;28;20075;-47
2022/09/03 06:03:47;;;;;;;3.47;1.10;;;17.70;91.20;;;;;;5043445;28;20268;-46
2022/09/03 06:06:14;;;;;;;2.58;1.17;;;18.30;90.30;;;;;;5043600;28;20040;-45
2022/09/03 06:08:43;;;;;;;4.43;1.20;;;19.30;89.70;;;;;;5043335;28;20385;-46
2022/09/03 06:11:10;;;;;;;2.28;1.10;;;20.40;86.30;;;;;;5043741;28;20124;-47
2022/09/03 06:13:35;;;;;;;1.98;1.30;;;21.50;86.70;;;;;;5043384;28;20049;-49
2022/09/03 06:16:04;;;;;;;5.88;1.20;;;21.30;85.60;;;;;;5042618;28;20678;-46
2022/09/03 06:18:31;;;;;;;2.78;1.50;;;21.30;83.70;;;;;;5043576;28;20076;-48
2022/09/03 06:25:28;;;;;;;7.57;1.40;;;21.00;84.60;;;;;;5026056;28;20415;-53
2022/09/03 06:27:54;;;;;;;3.55;1.63;;;21.50;84.90;;;;;;5042543;28;20053;-48
2022/09/03 06:30:21;;;;;;;5.22;1.65;;;22.20;83.80;;;;;;5041898;28;20049;-48
2022/09/03 06:32:52;;;;;;;3.35;1.67;;;22.80;82.90;;;;;;5023477;28;20504;-47
2022/09/03 06:35:18;;;;;;;6.03;1.63;;;23.40;81.80;;;;;;5041817;28;20265;-47
2022/09/03 06:37:44;;;;;;;3.65;1.70;;;23.90;81.50;;;;;;5042503;28;20657;-49
2022/09/03 06:40:19;;;;;;;2.05;1.30;;;24.10;80.60;;;;;;5042545;28;20055;-49
2022/09/03 06:43:01;;;;;;;5.20;1.58;;;24.20;80.20;;;;;;5043039;28;20526;-49
2022/09/03 06:45:28;;;;;;;4.60;1.63;;;24.30;79.10;;;;;;5042604;28;20163;-48
2022/09/03 06:47:53;;;;;;;6.78;1.50;;;24.60;79.90;;;;;;5042798;28;20183;-49
2022/09/03 06:50:19;;;;;;;5.72;1.85;;;24.40;78.80;;;;;;5042278;28;20045;-46
2022/09/03 06:52:52;;;;;;;4.53;1.70;;;24.60;79.00;;;;;;5042147;28;20056;-46
2022/09/03 06:55:18;;;;;;;;;;;24.70;78.70;;;;;;5042728;28;20141;-47
2022/09/03 06:57:44;;;;;;;3.88;1.60;;;24.60;78.50;;;;;;5042320;28;20376;-47
2022/09/03 07:00:10;;;;;;;4.15;1.55;;;24.90;77.40;;;;;;5042329;28;20282;-47
2022/09/03 07:02:36;;;;;;;7.00;1.52;;;25.20;78.20;;;;;;5042403;28;20053;-47
2022/09/03 07:05:01;;;;;;;2.75;1.50;;;25.10;78.20;;;;;;5042652;28;20047;-46
2022/09/03 07:07:27;;;;;;;6.28;1.52;;;25.30;77.60;;;;;;5042276;28;20045;-46
2022/09/03 07:09:53;;;;;;;2.78;1.35;;;25.00;77.90;;;;;;5042213;28;20053;-46
2022/09/03 07:12:18;;;;;;;2.25;1.30;;;24.50;79.00;;;;;;5023364;28;20095;-48
2022/09/03 07:14:46;;;;;;;2.33;1.38;;;23.60;79.30;;;;;;5042109;28;20148;-46
2022/09/03 07:17:11;;;;;;;4.72;1.80;;;22.80;80.90;;;;;;5044133;28;20560;-47
2022/09/03 07:19:37;;;;;;;3.42;1.80;;;22.30;82.00;;;;;;5043220;28;20045;-50
2022/09/03 07:22:03;;;;;;;6.05;1.65;;;22.00;82.20;;;;;;5041983;28;20128;-45
2022/09/03 07:24:29;;;;;;;2.35;1.63;;;21.70;82.70;;;;;;5039767;28;20055;-48
2022/09/03 07:26:58;;;;;;;4.15;1.50;;;21.60;83.40;;;;;;5040820;28;20052;-48
2022/09/03 07:29:24;;;;;;;2.67;1.67;;;21.30;83.40;;;;;;5041263;28;20135;-51
2022/09/03 07:31:50;;;;;;;2.25;1.60;;;21.20;84.00;;;;;;5023189;28;20861;-49
2022/09/03 07:34:16;;;;;;;2.58;1.45;;;21.10;84.00;;;;;;5039961;28;20040;-48
2022/09/03 07:36:45;;;;;;;4.35;1.70;;;20.90;84.00;;;;;;5041705;28;20049;-47
2022/09/03 07:39:13;;;;;;;6.22;1.75;;;20.80;84.40;;;;;;5041865;28;20060;-50
2022/09/03 07:41:42;;;;;;;3.03;1.73;;;20.60;84.60;;;;;;5043095;28;20041;-48
2022/09/03 07:44:08;;;;;;;4.85;1.50;;;20.50;85.10;;;;;;5045902;28;20765;-50
2022/09/03 07:46:37;;;;;;;1.95;1.48;;;20.50;85.40;;;;;;5045652;28;20611;-50
2022/09/03 07:49:06;;;;;;;2.83;1.58;;;20.60;85.90;;;;;;5044583;28;20463;-49
2022/09/03 07:51:37;;;;;;;5.00;1.70;;;20.60;85.60;;;;;;5025680;28;20060;-47
2022/09/03 07:54:09;;;;;;;5.68;1.60;;;20.60;85.50;;;;;;5043534;28;20040;-50
2022/09/03 07:56:40;;;;;;;4.95;1.70;;;20.60;85.40;;;;;;5026132;28;20110;-47
2022/09/03 07:59:07;;;;;;;4.40;1.50;;;20.80;86.40;;;;;;5044313;28;20447;-50
2022/09/03 08:01:34;;;;;;;2.75;1.40;;;20.80;85.60;;;;;;5044386;28;20048;-48
2022/09/03 08:04:01;;;;;;;3.65;1.45;;;20.90;85.80;;;;;;5044099;28;20053;-46
2022/09/03 08:06:28;;;;;;;6.50;1.50;;;20.90;85.30;;;;;;5026552;28;20538;-46
2022/09/03 08:08:59;;;;;;;3.67;1.50;;;20.90;85.00;;;;;;5025552;28;20057;-48
2022/09/03 08:11:26;;;;;;;3.05;1.42;;;20.90;85.50;;;;;;5043286;28;20497;-47
2022/09/03 08:14:05;;;;;;;4.07;1.60;;;21.00;86.00;;;;;;5043185;28;20041;-49
2022/09/03 08:16:36;;;;;;;2.50;1.35;;;21.00;86.10;;;;;;5026041;28;20139;-46
2022/09/03 08:19:02;;;;;;;4.40;1.35;;;21.00;85.40;;;;;;5026288;28;20093;-50
2022/09/03 08:21:30;;;;;;;4.40;1.52;;;21.00;85.40;;;;;;5043866;28;20403;-49
2022/09/03 08:24:02;;;;;;;9.05;1.90;;;21.00;85.40;;;;;;5043328;28;20488;-49
2022/09/03 08:26:33;;;;;;;3.67;1.38;;;21.00;85.90;;;;;;5043024;28;20056;-48
2022/09/03 08:28:59;;;;;;;5.60;1.95;;;21.10;85.90;;;;;;5043844;28;20057;-48
2022/09/03 08:31:26;;;;;;;2.47;1.65;;;21.10;86.00;;;;;;5024848;28;20562;-49
2022/09/03 08:33:54;;;;;;;5.22;1.80;;;21.10;86.20;;;;;;5043358;28;20053;-47
2022/09/03 08:36:28;;;;;;;4.68;1.60;;;21.10;86.00;;;;;;5043192;28;20095;-47
2022/09/03 08:38:56;;;;;;;6.25;1.50;;;21.20;85.80;;;;;;5043817;28;20062;-49
2022/09/03 08:41:46;;;;;;;4.82;1.58;;;21.30;85.90;;;;;;5043757;28;20143;-46
2022/09/03 08:44:18;;;;;;;2.63;1.63;;;21.50;86.20;;;;;;5043208;28;20053;-48
2022/09/03 08:46:54;;;;;;;2.72;1.45;;;21.50;85.50;;;;;;5042810;28;20052;-51
2022/09/03 08:49:41;;;;;;;4.40;1.40;;;21.60;85.80;;;;;;5042984;28;20049;-48
2022/09/03 08:52:20;;;;;;;4.70;1.85;;;21.60;85.30;;;;;;5043199;28;20045;-47
2022/09/03 08:54:48;;;;;;;6.03;1.60;;;21.70;86.10;;;;;;5042020;28;20055;-49
2022/09/03 08:57:18;;;;;;;2.63;1.70;;;21.70;85.20;;;;;;5043944;28;20045;-48
2022/09/03 08:59:43;;;;;;;3.90;1.60;;;21.70;85.20;;;;;;5043923;28;20099;-50
2022/09/03 09:02:42;;;;;;;4.90;1.50;;;21.80;85.50;;;;;;5043902;28;20049;-48
2022/09/03 09:05:19;;;;;;;6.15;1.55;;;21.90;85.20;;;;;;5043040;28;20432;-48
2022/09/03 09:08:09;;;;;;;3.67;1.40;;;22.00;85.00;;;;;;5042488;28;20091;-53
2022/09/03 09:10:53;;;;;;;2.50;1.50;;;22.10;85.20;;;;;;5043151;28;20175;-52
2022/09/03 09:13:24;;;;;;;4.22;1.55;;;22.10;84.50;;;;;;5047022;28;20104;-51
2022/09/03 09:16:10;;;;;;;6.65;1.58;;;22.20;84.60;;;;;;5043587;28;20303;-51
2022/09/03 09:19:10;;;;;;;5.57;1.90;;;22.20;84.30;;;;;;5041191;28;20040;-51
2022/09/03 09:22:00;;;;;;;3.20;1.40;;;22.20;84.10;;;;;;4959148;28;20055;-52
2022/09/03 09:24:32;;;;;;;2.67;1.60;;;22.30;84.10;;;;;;4955310;28;20085;-50
2022/09/03 09:27:02;;;;;;;3.45;1.45;;;22.20;84.40;;;;;;4960408;28;20058;-50
2022/09/03 09:29:32;;;;;;;2.70;1.60;;;22.40;85.10;;;;;;4960773;28;20104;-49
2022/09/03 09:31:57;;;;;;;2.03;1.40;;;22.40;85.20;;;;;;4960629;28;20522;-51
2022/09/03 09:34:23;;;;;;;1.30;1.13;;;22.60;84.40;;;;;;4960283;28;20053;-50
2022/09/03 09:36:54;;;;;;;11.05;1.50;;;22.70;85.30;;;;;;4960627;28;20050;-51
2022/09/03 09:39:21;;;;;;;3.72;1.58;;;22.80;83.60;;;;;;4960152;28;20086;-48
2022/09/03 09:42:20;;;;;;;3.58;1.65;;;22.70;83.80;;;;;;4961080;28;20764;-49
2022/09/03 09:44:46;;;;;;;2.22;1.60;;;22.90;84.40;;;;;;4921555;29;20588;-48
2022/09/03 09:47:21;;;;;;;6.70;2.20;;;23.00;83.80;;;;;;4921942;29;20051;-48
2022/09/03 09:49:54;;;;;;;4.93;1.70;;;23.00;83.80;;;;;;4922114;29;20508;-53
2022/09/03 09:52:24;;;;;;;4.70;2.25;;;23.00;83.40;;;;;;4922221;29;20055;-48
2022/09/03 09:54:51;;;;;;;3.47;1.60;;;23.10;83.80;;;;;;4921382;29;20527;-51
2022/09/03 09:57:22;;;;;;;3.63;1.95;;;23.20;83.90;;;;;;4921756;29;20048;-50
2022/09/03 10:00:14;;;;;;;3.97;1.60;;;23.20;83.30;;;;;;4978514;28;20043;-50
2022/09/03 10:02:48;;;;;;;5.10;2.20;;;23.30;84.10;;;;;;4960446;28;20514;-49
2022/09/03 10:05:25;;;;;;;6.32;1.60;;;23.40;84.70;;;;;;4959140;28;20105;-50
2022/09/03 10:08:03;;;;;;;7.38;1.58;;;23.50;83.20;;;;;;4959852;28;20078;-49
2022/09/03 10:10:36;;;;;;;3.65;2.00;;;23.60;84.00;;;;;;4960767;28;20057;-48
2022/09/03 10:13:04;;;;;;;3.92;1.70;;;23.60;83.50;;;;;;4960642;28;20129;-49
2022/09/03 10:16:09;;;;;;;4.63;2.00;;;23.80;82.90;;;;;;4959682;28;20078;-49
2022/09/03 10:19:23;;;;;;;5.05;1.88;;;23.90;82.60;;;;;;4960172;28;20051;-50
2022/09/03 10:22:27;;;;;;;3.38;1.60;;;23.90;82.80;;;;;;4960313;28;20149;-52
2022/09/03 10:25:02;;;;;;;2.20;1.40;;;24.00;82.30;;;;;;4882454;29;20135;-49
2022/09/03 10:27:28;;;;;;;4.55;1.45;;;23.90;82.20;;;;;;4883294;29;20480;-53
2022/09/03 10:29:54;;;;;;;3.35;1.33;;;24.10;83.30;;;;;;4884027;29;20108;-49
2022/09/03 10:33:04;;;;;;;4.82;1.50;;;24.10;82.50;;;;;;4883812;29;20167;-50
2022/09/03 10:35:36;;;;;;;4.43;1.75;;;24.10;81.20;;;;;;4879744;29;20060;-50
2022/09/03 10:38:14;;;;;;;3.95;1.42;;;24.20;81.10;;;;;;4875342;29;20868;-53
2022/09/03 10:41:12;;;;;;;4.25;1.60;;;24.30;81.60;;;;;;4899769;29;20067;-51
2022/09/03 10:43:54;;;;;;;3.78;1.48;;;24.40;81.70;;;;;;4904407;29;20056;-49
2022/09/03 10:46:36;;;;;;;4.35;1.67;;;24.40;81.00;;;;;;4902787;29;20084;-54
2022/09/03 10:49:22;;;;;;;6.63;1.55;;;24.50;80.60;;;;;;4903211;29;20075;-57
2022/09/03 10:52:10;;;;;;;5.50;1.70;;;24.60;81.10;;;;;;4902918;29;20080;-54
2022/09/03 10:55:08;;;;;;;1.85;1.48;;;24.60;80.90;;;;;;4904684;28;20582;-53
2022/09/03 10:57:51;;;;;;;6.20;1.60;;;24.70;79.70;;;;;;4913221;28;20050;-52
2022/09/03 11:00:18;;;;;;;3.58;1.75;;;24.60;79.50;;;;;;4960070;28;20113;-51
2022/09/03 11:03:14;;;;;;;3.38;1.33;;;24.80;79.90;;;;;;4959428;28;20524;-49
2022/09/03 11:05:57;;;;;;;3.28;1.42;;;24.80;79.20;;;;;;4957137;28;20277;-51
2022/09/03 11:08:47;;;;;;;3.50;1.30;;;24.70;78.60;;;;;;4962844;28;20685;-53
2022/09/03 11:11:18;;;;;;;4.32;1.60;;;24.90;80.00;;;;;;4968543;28;20058;-51
2022/09/03 11:13:59;;;;;;;1.70;1.15;;;25.00;78.20;;;;;;4949942;28;20489;-50
2022/09/03 11:16:31;;;;;;;6.45;1.83;;;24.90;78.60;;;;;;4949622;28;20461;-53
2022/09/03 11:19:14;;;;;;;3.17;1.55;;;24.90;78.40;;;;;;4962034;28;20055;-51
2022/09/03 11:21:41;;;;;;;4.38;1.30;;;24.90;79.40;;;;;;4962547;28;20048;-51
2022/09/03 11:24:23;;;;;;;2.75;1.73;;;25.10;79.00;;;;;;4961811;28;20117;-53
2022/09/03 11:27:13;;;;;;;2.35;1.38;;;25.20;79.10;;;;;;4944789;28;20584;-52
2022/09/03 11:30:06;;;;;;;3.38;1.48;;;25.30;78.70;;;;;;4958489;28;20106;-52
2022/09/03 11:32:39;;;;;;;6.32;1.67;;;25.30;78.30;;;;;;4971225;28;20533;-52
2022/09/03 11:35:15;;;;;;;4.80;1.45;;;25.40;78.10;;;;;;5004535;28;20057;-52
2022/09/03 11:37:53;;;;;;;2.33;1.40;;;25.40;77.00;;;;;;5002571;28;20156;-50
2022/09/03 11:40:28;;;;;;;3.55;1.55;;;25.30;77.00;;;;;;5004357;28;20065;-55
2022/09/03 11:43:25;;;;;;;3.30;1.30;;;25.40;76.60;;;;;;5007326;28;20525;-51
2022/09/03 11:46:12;;;;;;;2.85;1.30;;;25.50;77.40;;;;;;5008337;28;20045;-53
2022/09/03 11:48:43;;;;;;;2.97;1.70;;;25.50;75.80;;;;;;5007732;28;20041;-54
2022/09/03 11:51:54;;;;;;;6.05;1.42;;;25.60;76.70;;;;;;5008084;28;20533;-51
2022/09/03 11:54:22;;;;;;;5.10;1.45;;;25.60;74.80;;;;;;5002315;28;20437;-55
2022/09/03 11:56:49;;;;;;;5.40;1.35;;;25.60;75.50;;;;;;4995891;28;20153;-53
2022/09/03 11:59:25;;;;;;;2.85;1.48;;;25.50;76.50;;;;;;4968503;28;20257;-54
2022/09/03 12:01:55;;;;;;;2.13;1.45;;;25.40;75.40;;;;;;5002618;28;20390;-55
2022/09/03 12:04:47;;;;;;;6.45;1.70;;;25.40;74.20;;;;;;4987560;28;20151;-54
2022/09/03 12:07:28;;;;;;;3.63;1.52;;;25.20;74.20;;;;;;5005260;28;20140;-52
2022/09/03 12:10:03;;;;;;;2.35;1.33;;;25.10;74.60;;;;;;5004541;28;20504;-54
2022/09/03 12:13:11;;;;;;;3.35;1.50;;;25.10;74.60;;;;;;5004847;28;20080;-51
2022/09/03 12:15:53;;;;;;;5.13;1.50;;;25.10;73.80;;;;;;4946676;29;20537;-54
2022/09/03 12:18:28;;;;;;;5.65;1.40;;;25.10;74.00;;;;;;4946877;29;20090;-54
2022/09/03 12:20:59;;;;;;;2.78;1.30;;;25.20;75.00;;;;;;4945362;28;20110;-53
2022/09/03 12:23:33;;;;;;;2.05;1.23;;;25.20;74.80;;;;;;4951542;28;20099;-53
2022/09/03 12:26:13;;;;;;;3.65;1.70;;;25.20;74.70;;;;;;4946478;28;20051;-52
2022/09/03 12:28:42;;;;;;;4.47;1.50;;;25.30;76.00;;;;;;4947134;28;20061;-53
2022/09/03 12:31:18;;;;;;;5.03;1.33;;;25.40;75.50;;;;;;4945255;29;20120;-54
2022/09/03 12:33:45;;;;;;;3.40;1.60;;;25.50;74.90;;;;;;4946037;29;20137;-55
2022/09/03 12:36:13;;;;;;;2.10;1.27;;;25.50;74.40;;;;;;4946135;29;20059;-53
2022/09/03 12:38:39;;;;;;;5.15;1.50;;;25.40;74.00;;;;;;4945915;29;20109;-55
2022/09/03 12:41:20;;;;;;;4.05;1.50;;;25.40;74.50;;;;;;4947129;28;20054;-53
2022/09/03 12:43:57;;;;;;;3.33;1.80;;;25.50;74.70;;;;;;4928357;29;20098;-53
2022/09/03 12:46:32;;;;;;;2.60;1.58;;;25.50;74.70;;;;;;4945488;29;20066;-55
2022/09/03 12:49:04;;;;;;;2.20;1.40;;;25.50;75.10;;;;;;4945779;29;20055;-54
2022/09/03 12:51:40;;;;;;;;;;;25.50;76.00;;;;;;4955325;28;20096;-50
2022/09/03 12:54:14;;;;;;;3.40;1.40;;;25.50;74.50;;;;;;5007067;28;19968;-55
2022/09/03 12:56:47;;;;;;;4.82;1.63;;;25.60;75.30;;;;;;5006395;28;20053;-54
2022/09/03 12:59:17;;;;;;;2.40;1.30;;;25.50;74.60;;;;;;5006865;28;20054;-52
2022/09/03 13:01:51;;;;;;;2.83;1.38;;;25.50;74.50;;;;;;5006075;28;20056;-53
2022/09/03 13:04:28;;;;;;;1.95;1.30;;;25.50;74.40;;;;;;5006930;28;20050;-51
2022/09/03 13:07:05;;;;;;;3.35;1.52;;;25.60;74.50;;;;;;5004501;28;20049;-53
2022/09/03 13:09:35;;;;;;;3.88;1.63;;;25.60;73.70;;;;;;5005617;28;20056;-53
2022/09/03 13:12:04;;;;;;;2.88;1.83;;;25.60;74.40;;;;;;5007210;28;20149;-53
2022/09/03 13:14:46;;;;;;;2.95;1.60;;;25.50;74.10;;;;;;5006707;28;20125;-55
2022/09/03 13:17:51;;;;;;;2.50;1.40;;;25.60;74.60;;;;;;5006862;28;20053;-52
2022/09/03 13:20:46;;;;;;;3.38;1.13;;;25.60;74.70;;;;;;4996582;28;20069;-54
2022/09/03 13:23:18;;;;;;;2.13;1.50;;;25.60;74.20;;;;;;5006278;28;20061;-53
2022/09/03 13:26:02;;;;;;;6.68;1.55;;;25.50;72.90;;;;;;5011741;28;20124;-52
2022/09/03 13:28:47;;;;;;;3.88;1.48;;;25.60;74.70;;;;;;5028286;28;20053;-53